Time;durP1;ratioP1;P1;durP2;ratioP2;P2;SDS_P1;SDS_P2;PMS_P1;PMS_P2;Temp;Humidity;BMP_temperature;BMP_pressure;BME280_temperature;BME280_humidity;BME280_pressure;Samples;Min_cycle;Max_cycle;Signal;HPM_P1;HPM_P2
2022/10/28 00:02:26;;;;;;;9.75;8.33;;;;;;;11.58;100.00;100964.49;1710099;82;21038;-49
2022/10/28 00:04:52;;;;;;;13.75;8.30;;;;;;;11.56;100.00;100974.47;1705295;82;21108;-49
2022/10/28 00:07:18;;;;;;;6.47;5.90;;;;;;;11.53;100.00;100963.78;1704096;82;21629;-49
2022/10/28 00:09:45;;;;;;;12.68;6.03;;;;;;;11.49;100.00;100962.98;1705923;82;21846;-49
2022/10/28 00:12:11;;;;;;;13.03;6.40;;;;;;;11.49;100.00;100962.98;1709586;82;21247;-49
2022/10/28 00:14:38;;;;;;;7.60;5.80;;;;;;;11.48;100.00;100963.06;1710084;82;21102;-49
2022/10/28 00:17:04;;;;;;;8.10;5.30;;;;;;;11.46;100.00;100965.80;1710427;82;21420;-48
2022/10/28 00:19:31;;;;;;;4.95;4.25;;;;;;;11.49;100.00;100967.49;1705308;82;21173;-49
2022/10/28 00:21:59;;;;;;;6.12;5.50;;;;;;;11.48;100.00;100969.34;1706913;82;21756;-50
2022/10/28 00:24:26;;;;;;;5.15;4.42;;;;;;;11.48;100.00;100969.34;1708197;82;21532;-50
2022/10/28 00:26:52;;;;;;;9.48;5.37;;;;;;;11.48;100.00;100961.71;1710647;82;21098;-50
2022/10/28 00:29:18;;;;;;;6.83;5.50;;;;;;;11.45;100.00;100965.38;1710348;82;21528;-49
2022/10/28 00:31:45;;;;;;;6.35;4.72;;;;;;;11.45;100.00;100965.38;1709487;82;21199;-49
2022/10/28 00:34:15;;;;;;;7.08;5.30;;;;;;;11.47;100.00;100968.03;1707010;82;21852;-49
2022/10/28 00:36:43;;;;;;;7.33;5.10;;;;;;;11.47;100.00;100969.37;1709500;82;21062;-49
2022/10/28 00:39:17;;;;;;;6.90;5.78;;;;;;;11.44;100.00;100964.96;1710046;82;21097;-49
2022/10/28 00:41:50;;;;;;;9.80;5.17;;;;;;;11.42;100.00;100963.23;1707382;82;22188;-49
2022/10/28 00:44:58;;;;;;;4.85;4.10;;;;;;;11.39;100.00;100964.24;1713685;81;21432;-49
2022/10/28 00:47:54;;;;;;;6.90;3.45;;;;;;;11.39;100.00;100964.24;1705192;82;22294;-50
2022/10/28 00:50:46;;;;;;;7.05;4.45;;;;;;;11.36;100.00;100977.80;1710878;82;21082;-50
2022/10/28 00:53:25;;;;;;;6.78;3.72;;;;;;;11.34;100.00;100976.50;1705408;82;21050;-50
2022/10/28 00:55:51;;;;;;;5.37;4.10;;;;;;;11.33;100.00;100977.89;1707614;82;21512;-49
2022/10/28 00:58:20;;;;;;;3.20;2.65;;;;;;;11.33;100.00;100977.43;1733327;80;21085;-49
2022/10/28 01:00:47;;;;;;;4.70;2.80;;;;;;;11.31;100.00;100977.94;1733992;81;22004;-49
2022/10/28 01:03:15;;;;;;;6.75;3.30;;;;;;;11.34;100.00;100988.63;1735568;81;21038;-48
2022/10/28 01:05:43;;;;;;;3.92;3.65;;;;;;;11.32;100.00;100975.66;1734239;81;21498;-49
2022/10/28 01:08:09;;;;;;;7.40;3.20;;;;;;;11.32;100.00;100981.05;1736147;81;21050;-49
2022/10/28 01:10:52;;;;;;;6.53;3.22;;;;;;;11.32;100.00;100973.43;1706384;82;21507;-49
2022/10/28 01:13:39;;;;;;;10.90;4.55;;;;;;;11.31;100.00;100967.16;1725772;81;21852;-49
2022/10/28 01:16:23;;;;;;;6.80;5.00;;;;;;;11.31;100.00;100963.61;1732082;80;21542;-49
2022/10/28 01:19:10;;;;;;;10.00;5.47;;;;;;;11.30;100.00;100965.42;1735959;81;21099;-49
2022/10/28 01:22:09;;;;;;;12.82;6.50;;;;;;;11.29;100.00;100970.86;1734983;81;21068;-49
2022/10/28 01:25:14;;;;;;;7.00;5.60;;;;;;;11.26;100.00;100970.48;1738001;80;21055;-50
2022/10/28 01:28:12;;;;;;;6.67;4.30;;;;;;;11.24;100.00;100967.40;1736107;81;21774;-50
2022/10/28 01:31:18;;;;;;;5.83;4.60;;;;;;;11.22;100.00;100971.98;1704309;82;21306;-50
2022/10/28 01:34:11;;;;;;;5.50;3.87;;;;;;;11.19;100.00;100968.91;1735072;81;21035;-50
2022/10/28 01:37:01;;;;;;;6.85;4.37;;;;;;;11.18;100.00;100971.19;1735687;81;21041;-49
2022/10/28 01:40:03;;;;;;;5.17;4.08;;;;;;;11.17;100.00;100965.38;1735684;81;21017;-49
2022/10/28 01:42:56;;;;;;;4.62;3.70;;;;;;;11.16;100.00;100973.50;1737547;80;21847;-49
2022/10/28 01:45:33;;;;;;;5.33;3.08;;;;;;;11.16;100.00;100973.50;1726699;81;21486;-49
2022/10/28 01:48:14;;;;;;;6.45;2.62;;;;;;;11.14;100.00;100971.34;1734294;81;21448;-49
2022/10/28 01:51:02;;;;;;;4.50;3.20;;;;;;;11.12;100.00;100974.08;1736360;81;21081;-48
2022/10/28 01:53:32;;;;;;;6.33;3.08;;;;;;;11.12;100.00;100975.42;1730612;81;21362;-49
2022/10/28 01:56:01;;;;;;;3.22;2.58;;;;;;;11.12;100.00;100973.20;1712682;81;21967;-49
2022/10/28 01:58:29;;;;;;;4.87;3.62;;;;;;;11.10;100.00;100977.28;1728922;81;21029;-49
2022/10/28 02:00:56;;;;;;;8.08;4.10;;;;;;;11.11;100.00;100980.39;1734446;80;21067;-49
2022/10/28 02:03:26;;;;;;;5.20;3.80;;;;;;;11.10;100.00;100979.97;1728704;81;21057;-49
2022/10/28 02:05:55;;;;;;;6.92;3.25;;;;;;;11.10;100.00;100979.97;1729152;81;21571;-49
2022/10/28 02:09:12;;;;;;;4.65;3.62;;;;;;;11.08;100.00;100980.48;1731355;81;22534;-49
2022/10/28 02:11:56;;;;;;;4.90;2.85;;;;;;;11.06;100.00;100982.33;1726101;80;21044;-49
2022/10/28 02:15:09;;;;;;;6.30;3.00;;;;;;;11.02;100.00;100973.94;1729550;81;21049;-50
2022/10/28 02:17:53;;;;;;;4.00;3.33;;;;;;;11.01;100.00;100978.91;1730213;81;21112;-50
2022/10/28 02:20:52;;;;;;;2.87;2.55;;;;;;;10.98;100.00;100974.48;1728387;80;21054;-49
2022/10/28 02:23:44;;;;;;;5.33;3.27;;;;;;;10.97;100.00;100969.17;1731576;81;21409;-50
2022/10/28 02:26:36;;;;;;;6.45;2.95;;;;;;;10.95;100.00;100966.52;1733952;81;21464;-49
2022/10/28 02:29:17;;;;;;;6.80;3.30;;;;;;;10.95;100.00;100965.17;1733579;81;21533;-49
2022/10/28 02:31:51;;;;;;;3.62;2.12;;;;;;;10.94;100.00;100965.21;1733206;80;21092;-49
2022/10/28 02:34:23;;;;;;;2.67;2.35;;;;;;;10.94;100.00;100972.83;1732562;81;21131;-49
2022/10/28 02:36:51;;;;;;;2.87;2.67;;;;;;;10.94;100.00;100974.64;1707094;81;21770;-50
2022/10/28 02:39:23;;;;;;;6.92;2.90;;;;;;;10.93;100.00;100975.10;1726361;81;21080;-50
2022/10/28 02:42:09;;;;;;;4.22;2.47;;;;;;;10.93;100.00;100980.95;1734024;81;21109;-50
2022/10/28 02:44:40;;;;;;;6.67;3.37;;;;;;;10.93;100.00;100979.14;1700207;82;21155;-50
2022/10/28 02:47:11;;;;;;;5.12;3.95;;;;;;;10.92;100.00;100978.72;1699732;82;21066;-50
2022/10/28 02:49:37;;;;;;;4.25;3.80;;;;;;;10.92;100.00;100976.03;1672685;84;21981;-50
2022/10/28 02:52:05;;;;;;;6.20;3.58;;;;;;;10.91;100.00;100972.03;1668917;84;21096;-50
2022/10/28 02:54:38;;;;;;;2.87;2.52;;;;;;;10.88;100.00;100968.98;1731381;81;21046;-50
2022/10/28 02:57:09;;;;;;;3.10;2.80;;;;;;;10.88;100.00;100968.98;1728571;80;22186;-50
2022/10/28 02:59:37;;;;;;;6.70;3.05;;;;;;;10.88;100.00;100968.10;1707040;82;21501;-50
2022/10/28 03:02:04;;;;;;;4.35;2.67;;;;;;;10.85;100.00;100972.22;1729136;80;21836;-50
2022/10/28 03:04:32;;;;;;;4.33;2.33;;;;;;;10.83;100.00;100971.38;1730677;80;21075;-50
2022/10/28 03:06:59;;;;;;;5.83;3.10;;;;;;;10.82;100.00;100976.34;1724899;81;21029;-49
2022/10/28 03:09:25;;;;;;;3.22;2.92;;;;;;;10.82;100.00;100976.34;1725007;82;21069;-49
2022/10/28 03:11:53;;;;;;;2.72;2.52;;;;;;;10.81;100.00;100979.95;1726788;81;21065;-50
2022/10/28 03:14:19;;;;;;;4.42;3.08;;;;;;;10.81;100.00;100973.22;1734618;80;21836;-49
2022/10/28 03:16:47;;;;;;;6.03;3.20;;;;;;;10.79;100.00;100977.34;1731036;80;21629;-50
2022/10/28 03:19:14;;;;;;;3.92;2.58;;;;;;;10.81;100.00;100971.88;1724029;81;21033;-49
2022/10/28 03:21:41;;;;;;;2.85;2.65;;;;;;;10.81;100.00;100970.53;1729765;81;22371;-50
2022/10/28 03:24:07;;;;;;;3.85;2.95;;;;;;;10.81;100.00;100974.11;1730900;80;21177;-50
2022/10/28 03:26:34;;;;;;;6.53;3.80;;;;;;;10.81;100.00;100961.98;1726560;82;22885;-49
2022/10/28 03:29:01;;;;;;;4.45;3.30;;;;;;;10.81;100.00;100967.38;1727482;81;21099;-49
2022/10/28 03:31:27;;;;;;;4.97;3.87;;;;;;;10.82;100.00;100972.30;1730690;80;21046;-50
2022/10/28 03:33:54;;;;;;;3.92;3.50;;;;;;;10.82;100.00;100972.30;1728702;80;21673;-50
2022/10/28 03:36:20;;;;;;;3.02;2.55;;;;;;;10.79;100.00;100973.30;1724722;81;21051;-49
2022/10/28 03:38:47;;;;;;;5.45;3.33;;;;;;;10.77;100.00;100977.84;1727729;81;21976;-50
2022/10/28 03:41:14;;;;;;;7.33;3.17;;;;;;;10.76;100.00;100976.53;1723568;80;22198;-50
2022/10/28 03:43:42;;;;;;;3.60;3.30;;;;;;;10.72;100.00;100965.45;1726547;82;21502;-50
2022/10/28 03:46:08;;;;;;;3.30;3.08;;;;;;;10.70;100.00;100970.88;1728578;80;21371;-50
2022/10/28 03:48:35;;;;;;;3.77;2.65;;;;;;;10.68;100.00;100971.84;1729619;82;21532;-50
2022/10/28 03:51:01;;;;;;;4.25;2.90;;;;;;;10.67;100.00;100968.27;1725304;80;21956;-50
2022/10/28 03:53:28;;;;;;;4.95;2.37;;;;;;;10.67;100.00;100960.64;1724103;82;21118;-50
2022/10/28 03:55:55;;;;;;;6.80;3.00;;;;;;;10.67;100.00;100960.19;1721126;82;21173;-50
2022/10/28 03:58:22;;;;;;;7.95;2.90;;;;;;;10.66;100.00;100959.76;1726933;82;21037;-50
2022/10/28 04:00:51;;;;;;;6.55;3.22;;;;;;;10.66;100.00;100961.57;1733717;80;21037;-50
2022/10/28 04:03:19;;;;;;;7.35;3.42;;;;;;;10.67;100.00;100964.69;1727762;81;21797;-49
2022/10/28 04:05:49;;;;;;;4.22;2.62;;;;;;;10.67;100.00;100967.38;1672824;84;21590;-49
2022/10/28 04:08:16;;;;;;;4.85;2.83;;;;;;;10.67;100.00;100961.99;1728530;80;21717;-49
2022/10/28 04:10:44;;;;;;;4.35;3.47;;;;;;;10.66;100.00;100965.14;1725872;81;21666;-49
2022/10/28 04:13:11;;;;;;;7.60;4.50;;;;;;;10.66;100.00;100958.87;1725489;81;21046;-51
2022/10/28 04:15:37;;;;;;;4.65;3.50;;;;;;;10.66;100.00;100956.19;1720835;81;22818;-51
2022/10/28 04:18:05;;;;;;;5.40;4.03;;;;;;;10.63;100.00;100956.69;1729658;80;21448;-48
2022/10/28 04:20:33;;;;;;;4.12;3.55;;;;;;;10.62;100.00;100958.10;1726511;81;21037;-48
2022/10/28 04:22:59;;;;;;;6.47;2.83;;;;;;;10.59;100.00;100963.10;1724406;81;21664;-49
2022/10/28 04:25:27;;;;;;;5.72;3.33;;;;;;;10.58;100.00;100968.53;1721149;81;21665;-48
2022/10/28 04:27:53;;;;;;;2.47;2.27;;;;;;;10.56;100.00;100961.84;1724439;80;21929;-48
2022/10/28 04:30:20;;;;;;;8.23;4.25;;;;;;;10.55;100.00;100958.72;1724053;81;21069;-49
2022/10/28 04:32:46;;;;;;;4.17;3.85;;;;;;;10.55;100.00;100964.56;1726425;82;21519;-48
2022/10/28 04:35:14;;;;;;;6.83;3.05;;;;;;;10.51;100.00;100963.79;1725694;80;22131;-48
2022/10/28 04:37:40;;;;;;;10.48;3.47;;;;;;;10.52;100.00;100957.48;1728571;80;21059;-48
2022/10/28 04:40:08;;;;;;;4.00;3.52;;;;;;;10.51;100.00;100965.14;1728999;81;21821;-49
2022/10/28 04:42:35;;;;;;;4.53;3.22;;;;;;;10.49;100.00;100962.06;1725218;82;21062;-49
2022/10/28 04:45:01;;;;;;;7.53;3.22;;;;;;;10.47;100.00;100958.06;1724780;80;21589;-48
2022/10/28 04:47:28;;;;;;;5.15;3.62;;;;;;;10.47;100.00;100963.91;1725888;80;21060;-48
2022/10/28 04:49:55;;;;;;;5.72;4.30;;;;;;;10.45;100.00;100959.94;1722402;81;21075;-49
2022/10/28 04:52:21;;;;;;;4.30;4.00;;;;;;;10.47;100.00;100958.52;1723982;81;21910;-48
2022/10/28 04:54:49;;;;;;;4.00;3.52;;;;;;;10.47;100.00;100959.41;1727700;80;21002;-48
2022/10/28 04:57:16;;;;;;;6.92;3.30;;;;;;;10.46;100.00;100956.29;1723563;81;21081;-48
2022/10/28 04:59:43;;;;;;;6.67;3.67;;;;;;;10.47;100.00;100962.56;1729623;80;21421;-48
2022/10/28 05:02:09;;;;;;;4.03;3.67;;;;;;;10.47;100.00;100966.13;1733049;81;21071;-48
2022/10/28 05:04:35;;;;;;;4.33;3.40;;;;;;;10.46;100.00;100958.98;1729657;81;22580;-48
2022/10/28 05:07:02;;;;;;;5.85;4.20;;;;;;;10.47;100.00;100959.41;1734868;81;22254;-48
2022/10/28 05:09:29;;;;;;;5.10;4.60;;;;;;;10.47;100.00;100962.09;1708886;81;21054;-48
2022/10/28 05:11:56;;;;;;;9.38;4.47;;;;;;;10.48;100.00;100961.17;1731962;81;21100;-49
2022/10/28 05:14:22;;;;;;;5.90;4.90;;;;;;;10.50;100.00;100966.52;1732934;80;21054;-48
2022/10/28 05:16:49;;;;;;;6.85;5.42;;;;;;;10.49;100.00;100965.64;1731282;80;21413;-48
2022/10/28 05:19:16;;;;;;;7.20;6.50;;;;;;;10.50;100.00;100966.52;1728303;81;21052;-48
2022/10/28 05:21:42;;;;;;;10.65;7.22;;;;;;;10.51;100.00;100961.56;1731136;80;21047;-49
2022/10/28 05:24:10;;;;;;;8.93;7.20;;;;;;;10.49;100.00;100967.44;1731767;80;21077;-49
2022/10/28 05:26:36;;;;;;;11.33;6.75;;;;;;;10.47;100.00;100973.33;1729634;81;21162;-49
2022/10/28 05:29:02;;;;;;;6.62;6.00;;;;;;;10.46;100.00;100975.63;1731186;80;21975;-49
2022/10/28 05:31:29;;;;;;;6.62;5.87;;;;;;;10.44;100.00;100975.66;1734374;80;21663;-49
2022/10/28 05:33:56;;;;;;;10.90;6.28;;;;;;;10.44;100.00;100970.74;1733558;80;21554;-49
2022/10/28 05:36:23;;;;;;;8.50;6.22;;;;;;;10.43;100.00;100977.94;1732714;81;21115;-49
2022/10/28 05:38:49;;;;;;;7.55;6.75;;;;;;;10.44;100.00;100980.16;1734989;80;21614;-49
2022/10/28 05:41:16;;;;;;;11.75;5.37;;;;;;;10.44;100.00;100979.70;1729588;80;21965;-49
2022/10/28 05:43:42;;;;;;;9.68;6.08;;;;;;;10.45;100.00;100981.94;1733884;81;21827;-49
2022/10/28 05:46:09;;;;;;;6.90;5.87;;;;;;;10.47;100.00;100982.75;1731924;81;21578;-49
2022/10/28 05:48:36;;;;;;;8.13;5.45;;;;;;;10.48;100.00;100986.75;1731334;81;21546;-49
2022/10/28 05:51:02;;;;;;;5.78;5.25;;;;;;;10.51;100.00;100985.79;1733118;81;21020;-49
2022/10/28 05:53:29;;;;;;;6.17;5.60;;;;;;;10.52;100.00;100987.55;1734466;80;21848;-49
2022/10/28 05:55:55;;;;;;;8.75;5.03;;;;;;;10.53;100.00;100988.87;1731829;80;22005;-49
2022/10/28 05:58:22;;;;;;;5.78;5.17;;;;;;;10.55;100.00;100988.34;1731629;80;21053;-49
2022/10/28 06:00:48;;;;;;;7.45;5.25;;;;;;;10.59;100.00;100988.68;1735379;80;21117;-49
2022/10/28 06:04:12;;;;;;;12.47;5.97;;;;;;;10.61;100.00;100977.41;1790539;77;22688;-48
2022/10/28 06:06:40;;;;;;;6.12;5.42;;;;;;;10.66;100.00;100996.58;1760343;79;21060;-48
2022/10/28 06:09:06;;;;;;;8.55;6.00;;;;;;;10.68;100.00;101001.00;1765714;78;23616;-48
2022/10/28 06:11:34;;;;;;;6.37;5.85;;;;;;;10.70;100.00;101003.66;1767391;78;21068;-49
2022/10/28 06:14:01;;;;;;;6.97;6.22;;;;;;;10.70;100.00;100996.92;1767833;78;21048;-48
2022/10/28 06:16:27;;;;;;;6.08;5.45;;;;;;;10.69;100.00;100998.73;1763030;79;21017;-48
2022/10/28 06:18:53;;;;;;;6.95;5.30;;;;;;;10.70;100.00;100997.80;1758791;79;21050;-50
2022/10/28 06:21:20;;;;;;;8.35;5.60;;;;;;;10.71;100.00;100996.88;1760501;79;21844;-50
2022/10/28 06:23:48;;;;;;;7.25;5.92;;;;;;;10.75;100.00;101003.05;1765796;79;21027;-51
2022/10/28 06:26:15;;;;;;;5.87;4.90;;;;;;;10.76;100.00;101005.70;1761625;78;21516;-49
2022/10/28 06:28:42;;;;;;;7.22;5.28;;;;;;;10.81;100.00;101014.52;1762037;80;21345;-50
2022/10/28 06:31:08;;;;;;;8.28;5.22;;;;;;;10.86;100.00;101014.39;1759102;79;21104;-50
2022/10/28 06:33:35;;;;;;;8.43;5.63;;;;;;;10.89;100.00;101012.47;1761388;79;21835;-50
2022/10/28 06:36:01;;;;;;;7.90;5.50;;;;;;;10.91;100.00;101014.66;1760818;79;21615;-50
2022/10/28 06:38:28;;;;;;;8.33;5.10;;;;;;;10.97;100.00;101016.31;1760315;79;21041;-50
2022/10/28 06:40:58;;;;;;;5.08;4.45;;;;;;;11.00;100.00;101017.55;1764184;78;21017;-50
2022/10/28 06:43:26;;;;;;;6.72;6.12;;;;;;;11.02;100.00;101014.36;1761598;79;21044;-49
2022/10/28 06:45:55;;;;;;;9.25;5.40;;;;;;;11.07;100.00;101010.16;1765484;79;21024;-49
2022/10/28 06:48:22;;;;;;;6.72;4.53;;;;;;;11.12;100.00;101019.01;1761438;78;21029;-49
2022/10/28 06:50:49;;;;;;;7.20;5.05;;;;;;;11.16;100.00;101017.50;1761062;79;21382;-49
2022/10/28 06:53:15;;;;;;;5.55;4.72;;;;;;;11.24;100.00;101018.61;1765949;78;21459;-49
2022/10/28 06:55:47;;;;;;;7.75;5.00;;;;;;;11.35;100.00;101005.69;1769262;79;21112;-49
2022/10/28 06:58:10;;;;;;;8.35;5.40;;;;;;;11.35;100.00;101005.69;1750760;79;21752;-49
2022/10/28 07:00:36;;;;;;;9.28;6.12;;;;;;;11.41;100.00;101006.84;1743192;80;21090;-50
2022/10/28 07:03:04;;;;;;;11.08;5.58;;;;;;;11.45;100.00;101011.22;1735971;80;21313;-50
2022/10/28 07:05:30;;;;;;;6.47;5.87;;;;;;;11.53;100.00;101009.62;1707325;82;21550;-49
2022/10/28 07:07:59;;;;;;;8.23;7.45;;;;;;;11.59;100.00;101018.38;1709641;82;21504;-50
2022/10/28 07:10:26;;;;;;;8.90;7.80;;;;;;;11.63;100.00;101012.44;1690354;82;21996;-50
2022/10/28 07:12:53;;;;;;;12.28;9.75;;;;;;;11.67;100.00;101014.08;1710433;82;21317;-50
2022/10/28 07:15:21;;;;;;;8.70;6.12;;;;;;;11.67;100.00;101004.64;1708931;82;21496;-50
2022/10/28 07:17:54;;;;;;;6.42;5.83;;;;;;;11.74;100.00;101002.16;1678947;82;21534;-50
2022/10/28 07:20:21;;;;;;;5.03;4.65;;;;;;;11.74;100.00;101002.16;1714521;81;21138;-50
2022/10/28 07:22:47;;;;;;;8.18;5.20;;;;;;;11.76;100.00;101003.03;1708516;82;21938;-50
2022/10/28 07:25:14;;;;;;;4.75;4.28;;;;;;;11.78;100.00;101002.52;1678361;82;21072;-49
2022/10/28 07:27:43;;;;;;;4.53;4.12;;;;;;;11.79;100.00;100999.36;1708983;82;21668;-49
2022/10/28 07:30:12;;;;;;;5.47;3.87;;;;;;;11.86;100.00;100992.81;1680492;82;21072;-49
2022/10/28 07:32:39;;;;;;;4.55;4.17;;;;;;;11.92;100.00;100994.83;1712290;82;21037;-50
2022/10/28 07:35:06;;;;;;;8.28;4.15;;;;;;;12.01;100.00;100991.82;1704724;82;21438;-51
2022/10/28 07:37:34;;;;;;;7.80;3.45;;;;;;;12.09;100.00;100989.73;1710196;82;21067;-50
2022/10/28 07:40:05;;;;;;;6.17;3.55;;;;;;;12.18;100.00;100991.23;1707031;82;21101;-49
2022/10/28 07:42:33;;;;;;;6.17;4.42;;;;;;;12.23;100.00;100991.97;1710920;82;21228;-49
2022/10/28 07:44:59;;;;;;;5.85;3.72;;;;;;;12.29;100.00;100991.74;1710117;82;21069;-49
2022/10/28 07:47:26;;;;;;;6.67;3.58;;;;;;;12.35;100.00;100990.63;1719255;82;21812;-50
2022/10/28 07:49:53;;;;;;;5.62;4.08;;;;;;;12.38;100.00;100989.18;1707500;82;21506;-50
2022/10/28 07:52:20;;;;;;;4.28;3.12;;;;;;;12.41;100.00;100996.72;1703238;82;21056;-49
2022/10/28 07:54:50;;;;;;;7.55;3.40;;;;;;;12.45;100.00;100992.06;1710426;82;21061;-50
2022/10/28 07:57:19;;;;;;;4.65;3.15;;;;;;;12.49;100.00;100986.98;1690053;82;21784;-50
2022/10/28 07:59:46;;;;;;;4.80;2.90;;;;;;;12.52;100.00;100980.09;1720938;82;21834;-49
2022/10/28 08:02:20;;;;;;;3.72;2.05;;;;;;;12.56;100.00;100987.63;1704360;82;21060;-49
2022/10/28 08:04:47;;;;;;;5.97;2.85;;;;;;;12.59;100.00;100988.88;1716265;81;21109;-49
2022/10/28 08:07:13;;;;;;;3.35;3.10;;;;;;;12.65;100.00;100994.05;1725274;81;21533;-49
2022/10/28 08:09:40;;;;;;;5.20;3.92;;;;;;;12.70;100.00;100990.69;1714988;81;21081;-49
2022/10/28 08:12:07;;;;;;;3.25;2.90;;;;;;;12.77;100.00;100990.41;1720699;81;21786;-50
2022/10/28 08:14:34;;;;;;;4.33;3.05;;;;;;;12.85;100.00;101001.80;1728766;81;21074;-50
2022/10/28 08:17:10;;;;;;;4.37;3.35;;;;;;;12.92;100.00;100990.78;1718282;81;21720;-50
2022/10/28 08:19:39;;;;;;;4.80;3.08;;;;;;;12.94;100.00;100996.52;1721209;81;21487;-50
2022/10/28 08:22:09;;;;;;;6.70;2.67;;;;;;;12.96;100.00;100993.30;1723178;81;21081;-49
2022/10/28 08:24:37;;;;;;;4.75;3.08;;;;;;;12.97;100.00;100991.01;1719593;81;21938;-50
2022/10/28 08:27:04;;;;;;;4.25;3.10;;;;;;;13.00;100.00;100990.02;1718910;81;21052;-50
2022/10/28 08:29:32;;;;;;;4.75;3.27;;;;;;;13.05;100.00;100989.36;1725037;81;21541;-50
2022/10/28 08:31:59;;;;;;;7.17;3.25;;;;;;;13.08;100.00;100994.66;1725195;81;21102;-49
2022/10/28 08:34:28;;;;;;;5.12;2.42;;;;;;;13.13;100.00;100997.61;1715906;81;21558;-50
2022/10/28 08:36:57;;;;;;;2.60;2.40;;;;;;;13.19;100.00;101003.23;1683798;81;21105;-50
2022/10/28 08:39:24;;;;;;;4.80;2.55;;;;;;;13.24;100.00;101004.84;1722898;81;21768;-50
2022/10/28 08:42:19;;;;;;;3.80;1.82;;;;;;;13.27;100.00;101002.47;1728581;81;21032;-49
2022/10/28 08:45:09;;;;;;;6.45;4.28;;;;;;;13.30;100.00;101002.36;1716960;81;21152;-49
2022/10/28 08:47:41;;;;;;;5.00;4.20;;;;;;;13.31;100.00;101005.47;1665218;85;21126;-50
2022/10/28 08:50:17;;;;;;;3.90;3.40;;;;;;;13.32;100.00;101006.36;1633021;85;21866;-50
2022/10/28 08:52:48;;;;;;;5.85;2.77;;;;;;;13.33;100.00;101006.30;1694556;81;21044;-50
2022/10/28 08:55:30;;;;;;;5.45;2.42;;;;;;;13.37;100.00;101003.87;1722248;81;21061;-49
2022/10/28 08:58:10;;;;;;;2.77;2.27;;;;;;;13.38;100.00;100993.46;1716914;81;21561;-50
2022/10/28 09:00:36;;;;;;;3.12;1.15;;;;;;;13.44;100.00;100996.41;1728101;81;21073;-50
2022/10/28 09:03:19;;;;;;;4.75;1.32;;;;;;;13.49;100.00;100993.92;1726508;81;21815;-50
2022/10/28 09:05:49;;;;;;;1.72;1.00;;;;;;;13.56;100.00;100995.43;1736332;80;21060;-49
2022/10/28 09:08:23;;;;;;;2.25;1.10;;;;;;;13.64;100.00;100992.41;1742756;80;21064;-49
2022/10/28 09:11:17;;;;;;;2.27;1.00;;;;;;;13.74;100.00;100996.97;1740876;80;21057;-50
2022/10/28 09:14:20;;;;;;;2.08;1.70;;;;;;;13.83;100.00;100991.17;1739373;81;21543;-50
2022/10/28 09:17:07;;;;;;;2.27;1.57;;;;;;;13.91;100.00;100988.55;1739072;80;21837;-50
2022/10/28 09:20:03;;;;;;;1.30;0.80;;;;;;;13.96;100.00;100986.98;1722193;81;21146;-50
2022/10/28 09:22:56;;;;;;;3.05;1.07;;;;;;;13.98;100.00;100983.75;1738598;81;21092;-50
2022/10/28 09:25:34;;;;;;;1.17;0.75;;;;;;;13.93;100.00;100977.67;1739003;81;21570;-50
2022/10/28 09:28:25;;;;;;;1.45;0.90;;;;;;;13.91;100.00;100979.08;1695929;82;21069;-50
2022/10/28 09:31:09;;;;;;;1.67;0.70;;;;;;;13.93;100.00;100975.84;1706779;83;21942;-50
2022/10/28 09:33:50;;;;;;;0.98;0.50;;;;;;;13.96;100.00;100972.10;1705797;83;21711;-49
2022/10/28 09:36:34;;;;;;;1.00;0.60;;;;;;;13.98;100.00;100976.98;1705266;82;21113;-50
2022/10/28 09:39:01;;;;;;;0.70;0.60;;;;;;;13.99;100.00;100980.98;1705305;83;21042;-50
2022/10/28 09:41:31;;;;;;;2.15;0.60;;;;;;;13.99;100.00;100971.52;1671172;83;21102;-50
2022/10/28 09:44:32;;;;;;;0.62;0.60;;;;;;;13.96;100.00;100968.04;1692275;83;21800;-50
2022/10/28 09:46:58;;;;;;;2.00;0.50;;;;;;;13.92;100.00;100967.78;1704722;82;21036;-50
2022/10/28 09:49:34;;;;;;;0.70;0.50;;;;;;;13.90;100.00;100966.96;1691755;83;21077;-50
2022/10/28 09:52:24;;;;;;;1.15;0.50;;;;;;;13.90;100.00;100968.31;1684356;84;21112;-50
2022/10/28 09:54:52;;;;;;;0.53;0.45;;;;;;;13.93;100.00;100961.43;1684244;83;21081;-50
2022/10/28 09:57:19;;;;;;;0.68;0.40;;;;;;;13.96;100.00;100959.92;1694251;83;22496;-50
2022/10/28 09:59:46;;;;;;;3.22;0.80;;;;;;;14.00;100.00;100962.92;1677260;84;21528;-50
2022/10/28 10:02:30;;;;;;;1.42;0.55;;;;;;;14.04;100.00;100960.47;1679414;84;21030;-50
2022/10/28 10:04:57;;;;;;;1.00;0.42;;;;;;;14.08;100.00;100953.11;1705056;82;21622;-50
2022/10/28 10:07:35;;;;;;;0.45;0.40;;;;;;;14.13;100.00;100956.01;1695445;82;21121;-50
2022/10/28 10:10:07;;;;;;;0.50;0.30;;;;;;;14.17;100.00;100952.23;1692984;83;21831;-50
2022/10/28 10:12:33;;;;;;;3.02;0.30;;;;;;;14.19;100.00;100954.41;1692899;83;21113;-50
2022/10/28 10:15:00;;;;;;;0.53;0.40;;;;;;;14.19;100.00;100954.88;1728676;82;21085;-51
2022/10/28 10:17:43;;;;;;;0.88;0.50;;;;;;;14.20;100.00;100949.88;1730939;80;21006;-50
2022/10/28 10:20:16;;;;;;;3.08;0.65;;;;;;;14.19;100.00;100950.34;1732098;82;21057;-50
2022/10/28 10:22:46;;;;;;;0.45;0.35;;;;;;;14.15;100.00;100940.58;1728597;81;21806;-50
2022/10/28 10:25:24;;;;;;;0.68;0.40;;;;;;;14.13;100.00;100940.23;1727736;82;21484;-50
2022/10/28 10:28:01;;;;;;;0.90;0.40;;;;;;;14.10;100.00;100942.63;1696339;83;21054;-50
2022/10/28 10:30:39;;;;;;;1.22;0.30;;;;;;;14.09;100.00;100938.16;1732356;80;21665;-50
2022/10/28 10:33:06;;;;;;;3.98;0.40;;;;;;;14.11;100.00;100944.86;1718505;82;22172;-50
2022/10/28 10:35:34;;;;;;;0.55;0.40;;;;;;;14.11;100.00;100939.45;1736192;82;21846;-50
2022/10/28 10:38:03;;;;;;;0.80;0.40;;;;;;;14.12;100.00;100935.30;1725498;82;21116;-50
2022/10/28 10:40:32;;;;;;;1.20;0.40;;;;;;;14.12;100.00;100935.30;1733039;80;21076;-50
2022/10/28 10:43:22;;;;;;;0.93;0.40;;;;;;;14.08;100.00;100930.98;1729000;81;21950;-50
2022/10/28 10:46:03;;;;;;;2.92;0.40;;;;;;;14.07;100.00;100931.92;1726163;82;21045;-51
2022/10/28 10:48:35;;;;;;;4.67;0.45;;;;;;;14.09;100.00;100931.39;1710471;81;21824;-50
2022/10/28 10:51:24;;;;;;;0.80;0.30;;;;;;;14.12;100.00;100936.64;1722267;82;21613;-50
2022/10/28 10:53:59;;;;;;;0.50;0.40;;;;;;;14.13;100.00;100926.23;1727714;82;21044;-51
2022/10/28 10:56:30;;;;;;;1.07;0.42;;;;;;;14.14;100.00;100927.98;1726627;82;21057;-50
2022/10/28 10:59:03;;;;;;;1.72;0.50;;;;;;;14.18;100.00;100924.69;1738509;81;21456;-50
2022/10/28 11:01:35;;;;;;;0.53;0.40;;;;;;;14.22;100.00;100927.17;1725083;82;22500;-50
2022/10/28 11:04:05;;;;;;;1.77;0.40;;;;;;;14.27;100.00;100926.52;1725211;82;21743;-50
2022/10/28 11:06:37;;;;;;;0.85;0.50;;;;;;;14.32;100.00;100928.53;1727875;80;21081;-50
2022/10/28 11:09:06;;;;;;;0.57;0.40;;;;;;;14.36;100.00;100926.10;1732135;80;21082;-50
2022/10/28 11:11:37;;;;;;;4.83;0.40;;;;;;;14.39;100.00;100922.38;1724861;82;21098;-50
2022/10/28 11:14:11;;;;;;;3.55;0.40;;;;;;;14.42;100.00;100920.91;1729836;82;21843;-50
2022/10/28 11:16:59;;;;;;;0.62;0.40;;;;;;;14.45;100.00;100919.42;1732687;80;21071;-50
2022/10/28 11:19:32;;;;;;;0.40;0.30;;;;;;;14.46;100.00;100917.09;1724451;82;21037;-49
2022/10/28 11:22:26;;;;;;;0.33;0.30;;;;;;;14.50;100.00;100918.72;1725913;82;21616;-50
2022/10/28 11:25:05;;;;;;;0.90;0.30;;;;;;;14.53;100.00;100912.30;1729558;80;21042;-50
2022/10/28 11:28:06;;;;;;;0.72;0.40;;;;;;;14.56;100.00;100907.59;1726734;82;21775;-50
2022/10/28 11:31:10;;;;;;;0.50;0.33;;;;;;;14.56;100.00;100904.00;1683696;82;21091;-50
2022/10/28 11:33:54;;;;;;;1.05;0.30;;;;;;;14.55;100.00;100903.12;1726611;81;21089;-50
2022/10/28 11:36:32;;;;;;;1.32;0.40;;;;;;;14.58;100.00;100904.34;1714580;81;21080;-50
2022/10/28 11:39:19;;;;;;;0.40;0.30;;;;;;;14.61;100.00;100906.04;1728981;82;21081;-51
2022/10/28 11:42:00;;;;;;;0.80;0.37;;;;;;;14.62;100.00;100900.55;1729528;82;21775;-50
2022/10/28 11:45:08;;;;;;;1.30;0.40;;;;;;;14.61;100.00;100899.27;1731671;80;21003;-50